South of the Border, South Carolina
Current Conditions -  °F | °C
As of 1:52 PM on Thursday 30 Oct 2014 (Local Time) from KMEB Reporting Station
Clear Clear  
Wind Chill: 70°   Ceiling: Unl
Heat Index: 70°   Visibility: 10mi
Dew Point: 43°   Wind: 13mph
Humidity: 38%   Direction: 30°NNE
Pressure: 29.99"   Gusts: 17mph
Location:  34.5115°N, 79.4035°W
Report Text: KMEB 301752Z AUTO 03011G15KT 10SM CLR 21/06 A2999 RMK AO2 SLP154 T02110061 10211 20117 58020
Loading
Personal Weather Stations






























Interactive Weather Map
Tropical Storm Tracking
New forecast layout! Learn more

10-Day Weather Forecast

Advertisements
Track Severe Weather on mobile